ITY7875 EHRD-ENBR
Flight info
| Callsign | ITY7875 |
|---|---|
| Flight time | N/A |
| Altitude | 24000 |
| Route | TULIP L74 MONIL/N0457F380 P1 GODOS DCT ROKAN/N0459F370 DCT LARGA DCT PENUN/N0460F380 DCT ALUVA |
| Aircraft | A320/M-SDE3FGHIRWY/LB1 |
Departure
| Time | 2026-04-27 12:34 |
|---|---|
| Airport | Rotterdam The Hague Airport (EHRD) |
Arrival
| Time | N/A |
|---|---|
| Airport | Bergen Airport, Flesland (ENBR) |
| Time | Latitude | Longitude | Altitude | Speed | Heading |
|---|---|---|---|---|---|
| 2026-04-27 12:21 | 51.94920 | 4.43525 | 1 ft | 0 kts | 327° |
| 2026-04-27 12:31 | 51.94921 | 4.43524 | 1 ft | 1 kts | 327° |
| 2026-04-27 12:31 | 51.94951 | 4.43516 | 1 ft | 8 kts | 18° |
| 2026-04-27 12:31 | 51.95003 | 4.43621 | 1 ft | 16 kts | 54° |
| 2026-04-27 12:32 | 51.95105 | 4.43581 | 1 ft | 20 kts | 327° |
| 2026-04-27 12:32 | 51.95226 | 4.43452 | 1 ft | 18 kts | 317° |
| 2026-04-27 12:32 | 51.95197 | 4.43285 | 1 ft | 18 kts | 237° |
| 2026-04-27 12:32 | 51.95134 | 4.43096 | 1 ft | 15 kts | 240° |
| 2026-04-27 12:33 | 51.95111 | 4.42986 | 1 ft | 4 kts | 269° |
| 2026-04-27 12:33 | 51.95147 | 4.42910 | 1 ft | 17 kts | 323° |
| 2026-04-27 12:33 | 51.95239 | 4.42904 | 2 ft | 14 kts | 50° |
| 2026-04-27 12:33 | 51.95312 | 4.43086 | 2 ft | 36 kts | 58° |
| 2026-04-27 12:34 | 51.95598 | 4.43799 | 1 ft | 110 kts | 57° |
| 2026-04-27 12:34 | 51.96099 | 4.45069 | 141 ft | 147 kts | 59° |
| 2026-04-27 12:34 | 51.96632 | 4.46458 | 820 ft | 144 kts | 55° |
| 2026-04-27 12:34 | 51.97167 | 4.47827 | 1509 ft | 145 kts | 58° |
| 2026-04-27 12:35 | 51.97706 | 4.49328 | 1976 ft | 164 kts | 57° |
| 2026-04-27 12:35 | 51.98584 | 4.50617 | 2353 ft | 183 kts | 22° |
| 2026-04-27 12:35 | 51.99906 | 4.50614 | 2670 ft | 207 kts | 340° |
| 2026-04-27 12:35 | 52.01271 | 4.49578 | 3091 ft | 232 kts | 334° |
| 2026-04-27 12:36 | 52.02779 | 4.48314 | 3704 ft | 252 kts | 333° |
| 2026-04-27 12:36 | 52.04347 | 4.46970 | 4693 ft | 258 kts | 333° |
| 2026-04-27 12:36 | 52.05945 | 4.45593 | 5674 ft | 261 kts | 333° |
| 2026-04-27 12:36 | 52.07559 | 4.44212 | 6654 ft | 265 kts | 333° |
| 2026-04-27 12:37 | 52.09207 | 4.42816 | 7537 ft | 269 kts | 332° |
| 2026-04-27 12:37 | 52.10878 | 4.41405 | 8477 ft | 273 kts | 332° |
| 2026-04-27 12:37 | 52.12582 | 4.39971 | 9366 ft | 278 kts | 332° |
| 2026-04-27 12:37 | 52.14317 | 4.38517 | 10269 ft | 282 kts | 331° |
| 2026-04-27 12:38 | 52.16116 | 4.37006 | 10719 ft | 303 kts | 331° |
| 2026-04-27 12:38 | 52.18025 | 4.35400 | 11127 ft | 321 kts | 331° |
| 2026-04-27 12:38 | 52.20031 | 4.33707 | 11851 ft | 328 kts | 331° |
| 2026-04-27 12:38 | 52.22074 | 4.31985 | 12660 ft | 332 kts | 331° |
| 2026-04-27 12:39 | 52.24139 | 4.30246 | 13474 ft | 336 kts | 331° |
| 2026-04-27 12:39 | 52.26225 | 4.28493 | 14265 ft | 340 kts | 330° |
| 2026-04-27 12:39 | 52.28334 | 4.26717 | 14972 ft | 343 kts | 330° |
| 2026-04-27 12:39 | 52.30464 | 4.24917 | 15702 ft | 345 kts | 330° |
| 2026-04-27 12:40 | 52.32605 | 4.23101 | 16417 ft | 348 kts | 330° |
| 2026-04-27 12:40 | 52.34766 | 4.21266 | 17130 ft | 351 kts | 330° |
| 2026-04-27 12:40 | 52.36207 | 4.20041 | 17599 ft | 353 kts | 329° |
| 2026-04-27 12:40 | 52.39111 | 4.17569 | 18525 ft | 357 kts | 329° |
| 2026-04-27 12:41 | 52.41320 | 4.15688 | 19137 ft | 360 kts | 329° |
| 2026-04-27 12:41 | 52.43556 | 4.13780 | 19733 ft | 363 kts | 329° |
| 2026-04-27 12:41 | 52.45807 | 4.11857 | 20352 ft | 366 kts | 330° |
| 2026-04-27 12:41 | 52.48077 | 4.09918 | 20953 ft | 369 kts | 329° |
| 2026-04-27 12:42 | 52.50363 | 4.07968 | 21553 ft | 372 kts | 329° |
| 2026-04-27 12:42 | 52.51890 | 4.06666 | 21954 ft | 374 kts | 329° |
| 2026-04-27 12:42 | 52.54208 | 4.04684 | 22553 ft | 377 kts | 329° |
| 2026-04-27 12:42 | 52.56545 | 4.02677 | 23169 ft | 380 kts | 329° |
| 2026-04-27 12:43 | 52.58892 | 4.00661 | 23748 ft | 383 kts | 329° |
| 2026-04-27 12:43 | 52.62037 | 3.97959 | 24415 ft | 387 kts | 329° |
| 2026-04-27 12:43 | 52.64429 | 3.95901 | 24891 ft | 389 kts | 329° |
| 2026-04-27 12:43 | 52.66833 | 3.93832 | 25362 ft | 391 kts | 329° |
| 2026-04-27 12:44 | 52.68436 | 3.92453 | 25655 ft | 393 kts | 329° |
| 2026-04-27 12:44 | 52.70864 | 3.90362 | 26122 ft | 395 kts | 328° |
| 2026-04-27 12:44 | 52.73306 | 3.88252 | 26548 ft | 397 kts | 328° |
| 2026-04-27 12:44 | 52.75760 | 3.86126 | 26975 ft | 400 kts | 328° |
| 2026-04-27 12:45 | 52.79034 | 3.83285 | 27529 ft | 403 kts | 328° |
| 2026-04-27 12:45 | 52.80714 | 3.81826 | 27810 ft | 404 kts | 328° |
| 2026-04-27 12:45 | 52.83208 | 3.79654 | 28222 ft | 406 kts | 328° |
| 2026-04-27 12:45 | 52.85715 | 3.77463 | 28652 ft | 408 kts | 327° |
| 2026-04-27 12:46 | 52.88193 | 3.75288 | 29068 ft | 409 kts | 327° |
| 2026-04-27 12:46 | 52.90712 | 3.73066 | 29435 ft | 413 kts | 327° |
| 2026-04-27 12:46 | 52.93269 | 3.70807 | 29532 ft | 421 kts | 327° |
| 2026-04-27 12:46 | 52.95873 | 3.68505 | 29709 ft | 427 kts | 327° |
| 2026-04-27 12:47 | 52.98517 | 3.66170 | 29887 ft | 432 kts | 327° |
| 2026-04-27 12:47 | 53.01182 | 3.63819 | 30108 ft | 436 kts | 327° |
| 2026-04-27 12:47 | 53.03805 | 3.61509 | 30351 ft | 438 kts | 328° |
| 2026-04-27 12:47 | 53.06551 | 3.59095 | 30586 ft | 439 kts | 328° |
| 2026-04-27 12:48 | 53.09256 | 3.56724 | 30832 ft | 440 kts | 328° |
| 2026-04-27 12:48 | 53.11955 | 3.54363 | 31099 ft | 440 kts | 328° |
| 2026-04-27 12:48 | 53.14360 | 3.52266 | 31349 ft | 440 kts | 328° |
| 2026-04-27 12:48 | 53.16955 | 3.50026 | 31304 ft | 392 kts | 328° |
| 2026-04-27 12:49 | 53.19309 | 3.48022 | 30914 ft | 369 kts | 328° |
| 2026-04-27 12:49 | 53.21565 | 3.46112 | 30420 ft | 357 kts | 328° |
| 2026-04-27 12:49 | 53.23780 | 3.44301 | 29547 ft | 354 kts | 329° |